Weather

Partly Cloudy
Friday 07/21 20%
Partly Cloudy
Sunshine and clouds mixed. A stray shower or thunderstorm is possible. High 93F. Winds S at 10 to 15 mph.
Clear
Saturday 07/22 20%
Clear
Generally sunny despite a few afternoon clouds. A stray shower or thunderstorm is possible. High 92F. Winds S at 5 to 10 mph.
Chance of a Thunderstorm
Sunday 07/23 50%
Chance of a Thunderstorm
Sunny skies during the morning hours. Scattered showers and thunderstorms developing in the afternoon. High 87F. Winds ESE at 10 to 15 mph. Chance of rain 50%.
Chance of a Thunderstorm
Monday 07/24 50%
Chance of a Thunderstorm
Scattered thunderstorms in the morning. Partly cloudy skies late. High 87F. Winds SSW at 5 to 10 mph. Chance of rain 50%.
Partly Cloudy
Tuesday 07/25 20%
Partly Cloudy
Partly to mostly cloudy. A stray shower or thunderstorm is possible. High around 90F. Winds S at 5 to 10 mph.

 

 

For a detailed forecast click the banner below.

ballooncastlogo

 

 

Available data for KABQ from the past 2 hours
ALBUQUERQUE, NM
Metar
KABQ 211552Z 26004KT 10SM FEW060 FEW140 26/13 A3023 RMK AO2 SLP145 TCU DSNT NE-SE T02560128

15:52 UTC

Wind: 260° 4kt

Visibility: 10 SM

Sky: FEW 6000 ft

Temp: 26 deg C / 78.8 deg F

Dewpoint: 13 deg C / 55.4 deg F

Pressure: 30.23 inHg

TAF
KABQ 211122Z 2112/2212 12006KT P6SM FEW120 FM211600 20006KT P6SM FEW100 FM212200 22011KT P6SM VCSH SCT070 FM220200 18007KT P6SM SCT120 FM220500 VRB04KT P6SM SCT150